メインページ
METAR-TAF:

METAR-TAF

空港 :

North Kingstown, ロードアイランド州, アメリカ合衆国

緯度: 41-36N, 経度: 071-25W, 海抜: 6m

現時点の気象観測

当レポートは1時間7分前の14:50(UTC)に作成
東/南東の風 5kt
気温 -8°C
湿度 41%
気圧 1033 hPa
視程: 16.1km
高度14000ftの曇り

METAR: KOQU 181450Z 12005KT 10SM OVC140 M08/M19 A3051

時間: 10:57 (15:57 UTC)


TAF: 見つかりません

4,000以上の空港の気象観測と天気予報(METAR報とTAF報)

利用可能な観測所は地図上に黄色い丸と赤い丸で示す。

丸の上にカーソルを重ねると観測所名を参照できる。

次にクリックすると気象観測と天気予報を参照できる。

マップの切り替え:黒色「×」印の緑ボタンをクリックして拡大、「-」印の緑ボタンをクリックして縮小、緑色の三角印をクリックして隣りの地図に切り替え


METAR-TAF: